Hauptseite
METAR-TAF:

METAR-TAF

Flughäfen :

Paris, Frankreich

Flughafen Le Bourget

Breite: 48-58N, Länge: 002-27E, Höhe: 66 m

Beobachtung

Neuester Wetterbericht von vor 36 Minuten, um 08:30 UTC
Wind 4 kt aus West/Nordwest, variierte zwischen West und Nord
Temperatur 14°C
Luftfeuchtigkeit 72%
Luftdruck 1019 hPa
Sichtweite 10 km oder mehr
Geschlossene Wolkendecke in der Höhe von 3900 ft

METAR: LFPB 230830Z AUTO 30004KT 260V350 9999 OVC039 14/09 Q1019 NOSIG

Zeit: 11:06 (09:06 UTC)

Prognose

Neuester Wetterbericht von vor 4 Stunden und 6 Minuten, um 05:00 UTC
Gültige Prognose vom 23 um 06 UTC bis 24 um 06 UTC
Wind 5 kt aus West/Nordwest
Sichtweite 10 km oder mehr
Durchbrochene Bewölkung in der Höhe von 4000 ft
Wahrscheinlichkeit 30% :
Zeitweise
vom 23 um 06 UTC bis 23 um 07 UTC
Durchbrochene Bewölkung in der Höhe von 1200 ft

TAF: LFPB 230500Z 2306/2406 30005KT 9999 BKN040 PROB30 TEMPO 2306/2307 BKN012

Wetterbeobachtungen und Prognosen von mehr als 4000 Flughäfen (METAR und TAF Bericht).

Die verfügbaren Stationen werden durch gelbe und rote Markierungen auf der Karte dargestellt.

Führen Sie die Maus auf sie, um den Namen der Station zu sehen.

Darauf klicken, um die Beobachtung von Wetterbeobachtungen und Prognosen zu sehen.

Um die Karte zu ändern : klicken Sie auf den grünen Tasten mit einem schwarzen Kreuz Zum Vergrößern, auf den grünen Button mit einem Gedankenstrich zu verkleinern, oder auf die grünen Pfeile für benachbarte Karten.


METAR-TAF: